createdAt,value
2023-03-01T00:00:01.788Z,26.40
2023-03-01T00:01:06.321Z,23.83
2023-03-01T00:02:08.721Z,24.87
2023-03-01T00:03:10.997Z,22.40
2023-03-01T00:04:13.340Z,26.27
2023-03-01T00:05:15.532Z,25.60
2023-03-01T00:06:17.961Z,23.37
2023-03-01T00:07:20.231Z,24.30
2023-03-01T00:08:22.437Z,25.03
2023-03-01T00:09:24.718Z,24.03
2023-03-01T00:10:27.715Z,22.53
2023-03-01T00:11:34.629Z,22.80
2023-03-01T00:12:37.644Z,21.60
2023-03-01T00:13:40.265Z,22.53
2023-03-01T00:14:42.451Z,23.43
2023-03-01T00:15:45.548Z,22.70
2023-03-01T00:16:47.910Z,23.10
2023-03-01T00:17:50.056Z,21.85
2023-03-01T00:18:52.406Z,24.30
2023-03-01T00:19:54.568Z,22.50
2023-03-01T00:20:57.287Z,21.37
2023-03-01T00:21:59.587Z,22.10
2023-03-01T00:23:01.840Z,22.40
2023-03-01T00:24:06.769Z,22.87
2023-03-01T00:25:09.235Z,23.27
2023-03-01T00:26:14.996Z,23.93
2023-03-01T00:27:17.530Z,23.10
2023-03-01T00:28:20.372Z,24.52
2023-03-01T00:29:24.544Z,23.47
2023-03-01T00:30:27.438Z,22.50
2023-03-01T00:31:33.563Z,25.93
2023-03-01T00:32:35.826Z,22.87
2023-03-01T00:33:38.418Z,23.10
2023-03-01T00:34:41.022Z,23.88
2023-03-01T00:35:43.467Z,23.93
2023-03-01T00:36:46.275Z,24.73
2023-03-01T00:37:58.974Z,23.27
2023-03-01T00:39:02.936Z,21.50
2023-03-01T00:40:07.302Z,25.20
2023-03-01T00:41:13.107Z,21.15
2023-03-01T00:42:15.387Z,21.70
2023-03-01T00:43:17.933Z,22.60
2023-03-01T00:44:20.138Z,22.42
2023-03-01T00:45:23.025Z,24.90
2023-03-01T00:46:28.036Z,23.75
2023-03-01T00:47:30.733Z,22.40
2023-03-01T00:48:33.274Z,21.63
2023-03-01T00:49:36.854Z,22.20
2023-03-01T00:50:39.153Z,21.73
2023-03-01T00:51:42.539Z,21.17
2023-03-01T00:52:44.979Z,20.13
2023-03-01T00:53:47.529Z,22.20
2023-03-01T00:54:51.059Z,21.00
2023-03-01T00:55:53.198Z,21.83
2023-03-01T00:56:55.387Z,22.00
2023-03-01T00:57:57.632Z,20.97
2023-03-01T00:58:59.880Z,24.13
2023-03-01T01:00:02.158Z,23.63
2023-03-01T01:01:18.420Z,22.70
2023-03-01T01:02:21.407Z,23.20
2023-03-01T01:03:26.201Z,20.00
2023-03-01T01:04:28.819Z,19.60
2023-03-01T01:05:31.887Z,22.27
2023-03-01T01:06:43.938Z,21.67
2023-03-01T01:07:46.142Z,22.27
2023-03-01T01:08:49.534Z,23.60
2023-03-01T01:09:52.068Z,20.25
2023-03-01T01:10:55.709Z,22.27
2023-03-01T01:11:57.953Z,22.17
2023-03-01T01:13:02.764Z,21.87
2023-03-01T01:14:05.017Z,21.92
2023-03-01T01:15:07.781Z,20.23
2023-03-01T01:16:10.343Z,21.75
2023-03-01T01:17:13.708Z,20.60
2023-03-01T01:18:16.453Z,18.85
2023-03-01T01:19:18.650Z,20.73
2023-03-01T01:20:20.807Z,20.27
2023-03-01T01:21:26.140Z,20.27
2023-03-01T01:22:28.962Z,21.33
2023-03-01T01:23:32.554Z,22.50
2023-03-01T01:24:34.796Z,24.65
2023-03-01T01:25:37.966Z,21.88
2023-03-01T01:26:40.137Z,22.67
2023-03-01T01:27:42.325Z,21.65
2023-03-01T01:28:45.248Z,20.67
2023-03-01T01:29:48.547Z,21.27
2023-03-01T01:30:50.740Z,22.55
2023-03-01T01:31:53.079Z,22.13
2023-03-01T01:32:56.018Z,20.73
2023-03-01T01:34:00.538Z,20.95
2023-03-01T01:35:02.792Z,21.40
2023-03-01T01:36:06.642Z,22.55
2023-03-01T01:37:10.204Z,20.98
2023-03-01T01:38:12.521Z,23.15
2023-03-01T01:39:14.746Z,22.30
2023-03-01T01:40:19.602Z,21.42
2023-03-01T01:41:23.370Z,21.77
2023-03-01T01:42:25.627Z,20.73
2023-03-01T01:43:32.501Z,22.05
2023-03-01T01:44:34.950Z,19.93
2023-03-01T01:45:37.755Z,22.15
2023-03-01T01:47:05.147Z,21.20
2023-03-01T01:48:41.354Z,21.13
2023-03-01T01:49:48.569Z,22.50
2023-03-01T01:51:03.908Z,20.90
2023-03-01T01:52:10.647Z,19.50
2023-03-01T01:53:17.491Z,20.92
2023-03-01T01:54:25.032Z,21.83
2023-03-01T01:55:31.653Z,20.70
2023-03-01T01:56:38.085Z,20.45
2023-03-01T01:57:48.465Z,20.83
2023-03-01T01:58:51.365Z,20.58
2023-03-01T01:59:59.247Z,18.63
2023-03-01T02:01:02.773Z,21.13
2023-03-01T02:02:06.469Z,22.52
2023-03-01T02:03:18.490Z,22.38
2023-03-01T02:04:22.072Z,21.85
2023-03-01T02:05:36.384Z,20.45
2023-03-01T02:06:45.885Z,20.23
2023-03-01T02:07:49.373Z,22.70
2023-03-01T02:09:03.042Z,22.10
2023-03-01T02:10:06.199Z,20.05
2023-03-01T02:11:09.868Z,21.58
2023-03-01T02:12:13.904Z,20.77
2023-03-01T02:13:16.572Z,21.95
2023-03-01T02:14:19.469Z,22.17
2023-03-01T02:15:21.691Z,23.17
2023-03-01T02:16:24.708Z,21.77
2023-03-01T02:17:28.112Z,20.92
2023-03-01T02:18:30.809Z,20.70
2023-03-01T02:20:02.311Z,20.92
2023-03-01T02:21:39.551Z,20.43
2023-03-01T02:22:46.106Z,21.20
2023-03-01T02:23:48.465Z,21.33
2023-03-01T02:25:09.818Z,21.48
2023-03-01T02:26:43.878Z,20.17
2023-03-01T02:28:19.471Z,21.58
2023-03-01T02:29:24.150Z,20.40
2023-03-01T02:30:26.920Z,19.10
2023-03-01T02:31:44.105Z,20.92
2023-03-01T02:32:49.448Z,23.50
2023-03-01T02:33:54.226Z,20.83
2023-03-01T02:34:57.452Z,21.00
2023-03-01T02:36:09.451Z,22.58
2023-03-01T02:37:21.638Z,21.27
2023-03-01T02:38:24.912Z,20.83
2023-03-01T02:39:38.057Z,21.80
2023-03-01T02:40:41.858Z,21.33
2023-03-01T02:41:49.036Z,21.38
2023-03-01T02:42:55.736Z,21.10
2023-03-01T02:43:58.128Z,21.10
2023-03-01T02:45:00.330Z,20.50
2023-03-01T02:46:15.726Z,20.63
2023-03-01T02:47:18.436Z,20.65
2023-03-01T02:48:21.152Z,20.08
2023-03-01T02:49:31.623Z,20.55
2023-03-01T02:51:06.986Z,18.88
2023-03-01T02:52:51.011Z,18.80
2023-03-01T02:54:29.291Z,20.20
2023-03-01T02:55:31.598Z,20.27
2023-03-01T02:56:33.983Z,22.63
2023-03-01T02:57:39.442Z,21.50
2023-03-01T02:58:46.770Z,20.77
2023-03-01T02:59:52.466Z,20.45
2023-03-01T03:00:55.107Z,19.77
2023-03-01T03:01:57.877Z,21.08
2023-03-01T03:03:00.443Z,21.00
2023-03-01T03:04:08.591Z,21.48
2023-03-01T03:05:15.045Z,21.13
2023-03-01T03:06:17.722Z,21.30
2023-03-01T03:07:20.146Z,21.17
2023-03-01T03:08:27.457Z,21.75
2023-03-01T03:09:29.676Z,20.65
2023-03-01T03:10:36.453Z,20.17
2023-03-01T03:11:41.982Z,20.25
2023-03-01T03:12:44.377Z,20.13
2023-03-01T03:13:49.196Z,20.92
2023-03-01T03:14:52.248Z,20.83
2023-03-01T03:15:57.024Z,20.13
2023-03-01T03:16:59.346Z,19.77
2023-03-01T03:18:01.627Z,20.15
2023-03-01T03:19:06.389Z,18.50
2023-03-01T03:20:13.661Z,19.80
2023-03-01T03:21:16.402Z,19.65
2023-03-01T03:22:18.712Z,21.50
2023-03-01T03:23:22.524Z,20.80
2023-03-01T03:24:24.747Z,22.73
2023-03-01T03:25:28.603Z,20.40
2023-03-01T03:26:31.340Z,20.92
2023-03-01T03:27:33.655Z,22.08
2023-03-01T03:28:36.378Z,19.63
2023-03-01T03:29:38.576Z,20.58
2023-03-01T03:30:41.967Z,19.73
2023-03-01T03:31:44.250Z,19.90
2023-03-01T03:32:53.388Z,20.48
2023-03-01T03:33:55.804Z,19.58
2023-03-01T03:34:57.935Z,19.02
2023-03-01T03:36:00.217Z,19.85
2023-03-01T03:37:02.419Z,20.50
2023-03-01T03:38:12.617Z,20.75
2023-03-01T03:39:14.792Z,21.58
2023-03-01T03:40:18.442Z,18.65
2023-03-01T03:41:21.421Z,17.83
2023-03-01T03:42:24.833Z,20.70
2023-03-01T03:43:27.038Z,20.55
2023-03-01T03:44:29.438Z,19.25
2023-03-01T03:45:34.603Z,19.23
2023-03-01T03:46:38.673Z,20.30
2023-03-01T03:47:40.789Z,20.55
2023-03-01T03:48:45.311Z,19.70
2023-03-01T03:49:47.531Z,20.98
2023-03-01T03:50:56.349Z,19.75
2023-03-01T03:51:58.599Z,20.13
2023-03-01T03:53:05.760Z,21.20
2023-03-01T03:54:07.963Z,21.80
2023-03-01T03:55:12.858Z,22.48
2023-03-01T03:56:16.408Z,20.23
2023-03-01T03:57:18.629Z,19.30
2023-03-01T03:58:23.277Z,19.60
2023-03-01T03:59:25.573Z,20.92
2023-03-01T04:00:27.830Z,22.67
2023-03-01T04:01:30.056Z,18.95
2023-03-01T04:02:32.704Z,21.17
2023-03-01T04:03:36.309Z,21.58
2023-03-01T04:04:38.585Z,18.80
2023-03-01T04:05:41.916Z,20.17
2023-03-01T04:06:44.098Z,21.42
2023-03-01T04:07:46.712Z,21.30
2023-03-01T04:08:52.166Z,18.60
2023-03-01T04:09:54.306Z,19.98
2023-03-01T04:11:21.778Z,23.20
2023-03-01T04:12:24.235Z,19.73
2023-03-01T04:13:26.587Z,20.20
2023-03-01T04:14:28.836Z,20.77
2023-03-01T04:15:32.028Z,21.38
2023-03-01T04:16:34.462Z,19.73
2023-03-01T04:17:39.849Z,20.23
2023-03-01T04:18:42.087Z,20.10
2023-03-01T04:19:45.178Z,20.33
2023-03-01T04:20:49.633Z,20.73
2023-03-01T04:21:53.169Z,21.95
2023-03-01T04:23:21.238Z,20.77
2023-03-01T04:24:24.024Z,21.83
2023-03-01T04:25:26.551Z,19.15
2023-03-01T04:26:29.345Z,22.08
2023-03-01T04:27:31.708Z,21.88
2023-03-01T04:28:37.624Z,21.40
2023-03-01T04:29:40.384Z,20.05
2023-03-01T04:30:42.614Z,20.88
2023-03-01T04:31:49.231Z,21.77
2023-03-01T04:32:51.519Z,19.83
2023-03-01T04:33:58.760Z,19.50
2023-03-01T04:35:01.644Z,19.45
2023-03-01T04:36:06.490Z,19.77
2023-03-01T04:37:12.410Z,19.27
2023-03-01T04:38:14.585Z,18.63
2023-03-01T04:39:17.547Z,17.15
2023-03-01T04:40:19.871Z,18.48
2023-03-01T04:41:23.969Z,18.20
2023-03-01T04:42:26.234Z,19.33
2023-03-01T04:43:28.494Z,20.75
2023-03-01T04:44:31.974Z,21.55
2023-03-01T04:45:35.531Z,22.42
2023-03-01T04:46:38.119Z,21.58
2023-03-01T04:47:41.918Z,19.25
2023-03-01T04:48:46.189Z,23.23
2023-03-01T04:49:48.366Z,18.27
2023-03-01T04:50:50.826Z,18.80
2023-03-01T04:51:53.042Z,20.08
2023-03-01T04:53:01.040Z,18.45
2023-03-01T04:54:03.303Z,18.52
2023-03-01T04:55:07.130Z,19.55
2023-03-01T04:56:09.736Z,20.30
2023-03-01T04:57:11.944Z,22.08
2023-03-01T04:58:14.153Z,20.88
2023-03-01T04:59:16.782Z,17.08
2023-03-01T05:00:39.365Z,17.95
2023-03-01T05:01:43.986Z,21.25
2023-03-01T05:02:55.545Z,20.10
2023-03-01T05:04:04.279Z,19.38
2023-03-01T05:05:06.967Z,19.33
2023-03-01T05:06:09.206Z,18.27
2023-03-01T05:07:14.128Z,19.35
2023-03-01T05:08:19.793Z,19.23
2023-03-01T05:09:23.229Z,19.00
2023-03-01T05:10:26.983Z,17.73
2023-03-01T05:11:32.945Z,18.60
2023-03-01T05:12:35.198Z,19.73
2023-03-01T05:13:39.084Z,20.45
2023-03-01T05:14:41.900Z,18.73
2023-03-01T05:15:44.118Z,18.73
2023-03-01T05:16:46.339Z,19.45
2023-03-01T05:17:49.955Z,18.98
2023-03-01T05:18:52.095Z,18.55
2023-03-01T05:19:56.646Z,19.23
2023-03-01T05:21:11.741Z,20.48
2023-03-01T05:22:13.889Z,23.23
2023-03-01T05:23:16.050Z,21.35
2023-03-01T05:24:18.258Z,20.52
2023-03-01T05:25:22.520Z,19.65
2023-03-01T05:26:29.714Z,23.33
2023-03-01T05:27:32.189Z,19.13
2023-03-01T05:28:34.895Z,19.27
2023-03-01T05:29:37.438Z,19.20
2023-03-01T05:30:40.198Z,19.35
2023-03-01T05:31:42.373Z,21.23
2023-03-01T05:32:46.944Z,23.55
2023-03-01T05:33:49.128Z,19.67
2023-03-01T05:34:53.305Z,20.45
2023-03-01T05:35:55.516Z,19.55
2023-03-01T05:36:58.365Z,20.55
2023-03-01T05:38:00.608Z,22.45
2023-03-01T05:39:03.476Z,21.77
2023-03-01T05:40:06.650Z,19.48
2023-03-01T05:41:16.001Z,19.08
2023-03-01T05:42:18.186Z,20.35
2023-03-01T05:43:20.380Z,20.45
2023-03-01T05:44:23.008Z,18.55
2023-03-01T05:45:28.068Z,20.80
2023-03-01T05:46:30.869Z,20.17
2023-03-01T05:47:33.322Z,20.75
2023-03-01T05:48:36.670Z,21.00
2023-03-01T05:49:39.836Z,19.80
2023-03-01T05:50:44.425Z,21.23
2023-03-01T05:51:51.114Z,19.95
2023-03-01T05:52:59.449Z,20.13
2023-03-01T05:54:03.496Z,21.58
2023-03-01T05:55:06.594Z,20.90
2023-03-01T05:56:08.983Z,22.75
2023-03-01T05:57:11.542Z,19.08
2023-03-01T05:58:17.867Z,23.67
2023-03-01T05:59:20.482Z,19.60
2023-03-01T06:00:25.665Z,20.55
2023-03-01T06:01:28.086Z,23.08
2023-03-01T06:02:31.429Z,20.38
2023-03-01T06:03:33.933Z,22.27
2023-03-01T06:04:36.158Z,22.05
2023-03-01T06:05:38.506Z,18.95
2023-03-01T06:06:40.750Z,20.63
2023-03-01T06:07:43.177Z,22.88
2023-03-01T06:08:45.408Z,24.98
2023-03-01T06:09:47.667Z,28.00
2023-03-01T06:10:49.983Z,19.80
2023-03-01T06:11:52.289Z,27.38
2023-03-01T06:12:54.876Z,19.77
2023-03-01T06:13:57.200Z,22.63
2023-03-01T06:15:00.321Z,26.42
2023-03-01T06:16:05.916Z,22.30
2023-03-01T06:17:08.126Z,22.98
2023-03-01T06:18:10.998Z,22.55
2023-03-01T06:19:13.187Z,23.00
2023-03-01T06:20:19.018Z,22.63
2023-03-01T06:21:21.223Z,25.73
2023-03-01T06:22:23.480Z,25.00
2023-03-01T06:23:26.369Z,20.00
2023-03-01T06:24:29.872Z,23.13
2023-03-01T06:25:32.075Z,23.33
2023-03-01T06:26:35.360Z,23.17
2023-03-01T06:27:37.841Z,22.10
2023-03-01T06:28:40.022Z,21.35
2023-03-01T06:29:42.781Z,24.35
2023-03-01T06:30:45.414Z,21.67
2023-03-01T06:31:49.633Z,19.08
2023-03-01T06:32:52.550Z,19.08
2023-03-01T06:33:55.121Z,21.58
2023-03-01T06:34:57.345Z,20.27
2023-03-01T06:35:59.524Z,25.02
2023-03-01T06:37:06.241Z,21.88
2023-03-01T06:38:10.318Z,20.65
2023-03-01T06:39:12.547Z,24.15
2023-03-01T06:40:16.421Z,25.63
2023-03-01T06:41:18.670Z,22.83
2023-03-01T06:42:20.970Z,25.23
2023-03-01T06:43:25.784Z,24.40
2023-03-01T06:44:31.080Z,23.42
2023-03-01T06:45:33.538Z,24.20
2023-03-01T06:46:35.818Z,23.08
2023-03-01T06:47:39.190Z,26.20
2023-03-01T06:48:41.948Z,23.95
2023-03-01T06:49:44.114Z,23.02
2023-03-01T06:50:46.291Z,22.17
2023-03-01T06:51:48.466Z,24.42
2023-03-01T06:52:56.815Z,22.23
2023-03-01T06:54:01.314Z,27.90
2023-03-01T06:55:06.203Z,24.55
2023-03-01T06:56:08.517Z,22.30
2023-03-01T06:57:10.687Z,22.30
2023-03-01T06:58:14.269Z,22.83
2023-03-01T06:59:17.659Z,22.75
2023-03-01T07:00:21.323Z,20.80
2023-03-01T07:01:23.905Z,20.48
2023-03-01T07:02:26.137Z,21.23
2023-03-01T07:03:28.608Z,22.58
2023-03-01T07:04:31.700Z,24.33
2023-03-01T07:05:34.530Z,20.08
2023-03-01T07:06:36.799Z,22.13
2023-03-01T07:07:39.551Z,21.17
2023-03-01T07:08:41.800Z,22.90
2023-03-01T07:09:44.037Z,22.27
2023-03-01T07:10:46.362Z,22.67
2023-03-01T07:11:48.871Z,20.93
2023-03-01T07:12:51.076Z,23.40
2023-03-01T07:13:53.277Z,23.80
2023-03-01T07:14:55.436Z,23.20
2023-03-01T07:15:57.613Z,20.90
2023-03-01T07:17:00.267Z,23.10
2023-03-01T07:18:02.956Z,22.07
2023-03-01T07:19:06.408Z,23.63
2023-03-01T07:20:09.449Z,20.63
2023-03-01T07:21:14.066Z,22.73
2023-03-01T07:22:16.282Z,22.60
2023-03-01T07:23:19.868Z,22.60
2023-03-01T07:24:22.115Z,21.17
2023-03-01T07:25:24.340Z,22.57
2023-03-01T07:26:26.627Z,23.00
2023-03-01T07:27:28.893Z,21.73
2023-03-01T07:28:31.923Z,20.80
2023-03-01T07:29:34.310Z,22.10
2023-03-01T07:30:36.541Z,21.03
2023-03-01T07:31:38.856Z,21.17
2023-03-01T07:32:41.167Z,23.17
2023-03-01T07:33:43.375Z,21.50
2023-03-01T07:34:45.691Z,21.77
2023-03-01T07:35:48.959Z,20.77
2023-03-01T07:36:52.011Z,20.13
2023-03-01T07:37:57.506Z,19.30
2023-03-01T07:38:59.817Z,20.93
2023-03-01T07:40:02.027Z,20.60
2023-03-01T07:41:04.929Z,21.57
2023-03-01T07:42:07.109Z,20.57
2023-03-01T07:43:09.317Z,20.53
2023-03-01T07:44:11.915Z,22.23
2023-03-01T07:45:14.650Z,23.47
2023-03-01T07:46:17.290Z,19.97
2023-03-01T07:47:19.472Z,20.33
2023-03-01T07:48:21.754Z,20.57
2023-03-01T07:49:24.046Z,19.57
2023-03-01T07:50:26.260Z,20.30
2023-03-01T07:51:28.411Z,18.10
2023-03-01T07:52:31.861Z,18.33
2023-03-01T07:53:35.275Z,21.30
2023-03-01T07:54:37.528Z,23.50
2023-03-01T07:55:39.707Z,22.20
2023-03-01T07:56:41.907Z,20.37
2023-03-01T07:57:44.345Z,19.70
2023-03-01T07:58:48.697Z,23.00
2023-03-01T07:59:51.950Z,21.47
2023-03-01T08:00:55.095Z,19.93
2023-03-01T08:01:57.971Z,20.80
2023-03-01T08:03:01.957Z,23.00
2023-03-01T08:04:05.847Z,20.73
2023-03-01T08:05:08.457Z,20.20
2023-03-01T08:06:12.896Z,21.90
2023-03-01T08:07:15.452Z,20.60
2023-03-01T08:08:19.521Z,20.33
2023-03-01T08:09:23.067Z,21.07
2023-03-01T08:10:25.380Z,20.93
2023-03-01T08:11:30.726Z,22.23
2023-03-01T08:12:33.350Z,22.23
2023-03-01T08:13:36.996Z,19.77
2023-03-01T08:14:41.185Z,20.67
2023-03-01T08:15:45.453Z,20.87
2023-03-01T08:16:52.826Z,22.03
2023-03-01T08:17:56.281Z,20.57
2023-03-01T08:19:01.709Z,21.77
2023-03-01T08:20:07.519Z,21.13
2023-03-01T08:21:14.407Z,24.30
2023-03-01T08:22:16.955Z,21.30
2023-03-01T08:23:19.176Z,20.17
2023-03-01T08:24:24.036Z,20.30
2023-03-01T08:25:26.255Z,22.67
2023-03-01T08:26:29.487Z,22.60
2023-03-01T08:27:33.371Z,20.63
2023-03-01T08:28:37.166Z,19.57
2023-03-01T08:29:39.277Z,21.27
2023-03-01T08:30:41.482Z,21.07
2023-03-01T08:31:44.185Z,21.93
2023-03-01T08:32:46.573Z,22.20
2023-03-01T08:33:57.043Z,20.20
2023-03-01T08:34:59.344Z,20.03
2023-03-01T08:36:07.971Z,18.90
2023-03-01T08:37:10.887Z,22.03
2023-03-01T08:38:13.102Z,21.27
2023-03-01T08:39:17.781Z,20.23
2023-03-01T08:40:20.023Z,22.70
2023-03-01T08:41:23.889Z,21.53
2023-03-01T08:42:26.102Z,24.50
2023-03-01T08:43:28.446Z,20.37
2023-03-01T08:44:30.663Z,22.30
2023-03-01T08:45:32.964Z,21.40
2023-03-01T08:46:38.657Z,20.10
2023-03-01T08:47:40.908Z,21.03
2023-03-01T08:48:44.343Z,24.23
2023-03-01T08:49:46.509Z,19.50
2023-03-01T08:50:48.719Z,20.57
2023-03-01T08:51:50.917Z,21.67
2023-03-01T08:52:53.070Z,21.20
2023-03-01T08:53:55.251Z,21.03
2023-03-01T08:54:57.966Z,23.23
2023-03-01T08:56:04.220Z,20.83
2023-03-01T08:57:07.947Z,20.20
2023-03-01T08:58:10.121Z,21.93
2023-03-01T08:59:13.460Z,19.90
2023-03-01T09:00:16.120Z,19.87
2023-03-01T09:01:21.175Z,20.20
2023-03-01T09:02:23.793Z,23.63
2023-03-01T09:03:28.383Z,22.57
2023-03-01T09:04:32.332Z,22.17
2023-03-01T09:05:35.395Z,20.80
2023-03-01T09:06:37.691Z,24.00
2023-03-01T09:07:39.918Z,21.07
2023-03-01T09:08:44.769Z,23.40
2023-03-01T09:09:49.444Z,22.47
2023-03-01T09:10:51.716Z,22.73
2023-03-01T09:11:53.929Z,23.87
2023-03-01T09:12:56.100Z,20.40
2023-03-01T09:13:58.342Z,21.70
2023-03-01T09:15:00.639Z,22.47
2023-03-01T09:16:05.644Z,21.03
2023-03-01T09:17:07.925Z,21.30
2023-03-01T09:18:10.360Z,21.27
2023-03-01T09:19:12.652Z,22.13
2023-03-01T09:20:14.964Z,21.97
2023-03-01T09:21:39.158Z,22.47
2023-03-01T09:22:42.317Z,21.60
2023-03-01T09:23:48.740Z,21.90
2023-03-01T09:24:51.142Z,24.07
2023-03-01T09:25:53.912Z,21.30
2023-03-01T09:26:57.279Z,21.63
2023-03-01T09:27:59.407Z,22.43
2023-03-01T09:29:01.627Z,23.13
2023-03-01T09:30:04.149Z,23.47
2023-03-01T09:31:06.837Z,22.80
2023-03-01T09:32:09.454Z,22.53
2023-03-01T09:33:15.645Z,21.90
2023-03-01T09:34:24.188Z,22.63
2023-03-01T09:35:26.384Z,24.33
2023-03-01T09:36:28.801Z,23.73
2023-03-01T09:37:34.353Z,22.07
2023-03-01T09:38:36.903Z,24.57
2023-03-01T09:39:39.045Z,27.30
2023-03-01T09:40:47.321Z,23.20
2023-03-01T09:42:05.607Z,21.73
2023-03-01T09:43:18.627Z,22.90
2023-03-01T09:44:27.316Z,22.67
2023-03-01T09:45:35.339Z,21.57
2023-03-01T09:46:43.426Z,22.07
2023-03-01T09:47:47.592Z,22.80
2023-03-01T09:48:58.474Z,21.63
2023-03-01T09:50:03.673Z,22.73
2023-03-01T09:51:13.771Z,23.23
2023-03-01T09:52:33.065Z,21.50
2023-03-01T09:53:36.333Z,24.07
2023-03-01T09:54:38.703Z,23.17
2023-03-01T09:55:46.941Z,25.43
2023-03-01T09:57:02.174Z,21.43
2023-03-01T09:58:28.842Z,24.40
2023-03-01T09:59:53.968Z,21.73
2023-03-01T10:00:59.986Z,23.60
2023-03-01T10:02:22.742Z,22.73
2023-03-01T10:03:39.455Z,22.43
2023-03-01T10:04:48.358Z,22.47
2023-03-01T10:06:35.051Z,23.33
2023-03-01T10:07:49.071Z,23.03
2023-03-01T10:08:58.901Z,21.80
2023-03-01T10:10:02.294Z,22.40
2023-03-01T10:11:13.881Z,21.13
2023-03-01T10:12:28.844Z,23.73
2023-03-01T10:13:45.989Z,21.90
2023-03-01T10:14:58.916Z,21.23
2023-03-01T10:16:15.519Z,26.20
2023-03-01T10:17:35.372Z,20.70
2023-03-01T10:18:39.533Z,22.13
2023-03-01T10:19:47.125Z,21.53
2023-03-01T10:21:02.914Z,22.17
2023-03-01T10:22:30.724Z,23.07
2023-03-01T10:23:36.648Z,22.53
2023-03-01T10:24:38.917Z,22.00
2023-03-01T10:26:06.137Z,22.57
2023-03-01T10:27:32.082Z,22.00
2023-03-01T10:28:49.535Z,22.70
2023-03-01T10:30:22.212Z,22.87
2023-03-01T10:31:31.052Z,22.83
2023-03-01T10:32:33.827Z,21.70
2023-03-01T10:33:40.672Z,21.07
2023-03-01T10:34:42.930Z,19.17
2023-03-01T10:35:45.347Z,22.73
2023-03-01T10:36:58.362Z,25.10
2023-03-01T10:38:07.884Z,21.63
2023-03-01T10:39:17.591Z,22.83
2023-03-01T10:40:20.083Z,24.20
2023-03-01T10:41:27.156Z,23.10
2023-03-01T10:42:32.983Z,21.37
2023-03-01T10:43:56.990Z,20.57
2023-03-01T10:45:15.172Z,20.60
2023-03-01T10:46:33.361Z,21.40
2023-03-01T10:47:36.900Z,23.27
2023-03-01T10:48:39.042Z,20.63
2023-03-01T10:49:53.731Z,22.23
2023-03-01T10:50:58.604Z,21.47
2023-03-01T10:52:18.868Z,21.07
2023-03-01T10:53:35.289Z,21.97
2023-03-01T10:54:37.681Z,20.30
2023-03-01T10:55:41.305Z,20.27
2023-03-01T10:56:57.080Z,19.27
2023-03-01T10:58:11.780Z,19.67
2023-03-01T10:59:28.049Z,21.03
2023-03-01T11:00:30.310Z,20.53
2023-03-01T11:01:36.766Z,23.07
2023-03-01T11:02:39.105Z,20.97
2023-03-01T11:03:41.479Z,20.40
2023-03-01T11:05:03.271Z,21.17
2023-03-01T11:06:22.145Z,19.57
2023-03-01T11:07:24.308Z,20.40
2023-03-01T11:08:41.439Z,20.23
2023-03-01T11:09:44.200Z,20.90
2023-03-01T11:10:46.355Z,18.57
2023-03-01T11:12:01.789Z,19.67
2023-03-01T11:13:15.569Z,19.77
2023-03-01T11:14:29.558Z,20.53
2023-03-01T11:15:32.033Z,20.87
2023-03-01T11:16:37.456Z,19.77
2023-03-01T11:17:54.482Z,21.47
2023-03-01T11:19:19.056Z,20.53
2023-03-01T11:20:31.745Z,19.03
2023-03-01T11:21:35.933Z,21.80
2023-03-01T11:22:46.658Z,20.67
2023-03-01T11:23:51.103Z,19.60
2023-03-01T11:25:08.911Z,19.33
2023-03-01T11:26:14.188Z,21.97
2023-03-01T11:27:29.546Z,22.97
2023-03-01T11:28:34.055Z,19.53
2023-03-01T11:29:49.174Z,19.50
2023-03-01T11:31:08.729Z,17.43
2023-03-01T11:32:15.292Z,17.10
2023-03-01T11:33:43.852Z,16.03
2023-03-01T11:34:54.499Z,15.87
2023-03-01T11:36:05.494Z,14.97
2023-03-01T11:37:25.933Z,16.47
2023-03-01T11:38:32.089Z,16.83
2023-03-01T11:39:43.570Z,19.03
2023-03-01T11:40:56.100Z,16.33
2023-03-01T11:42:19.641Z,14.17
2023-03-01T11:43:32.906Z,14.17
2023-03-01T11:44:39.127Z,17.37
2023-03-01T11:46:11.922Z,14.40
2023-03-01T11:47:45.327Z,14.80
2023-03-01T11:49:27.458Z,16.77
2023-03-01T11:50:42.476Z,15.10
2023-03-01T11:51:54.908Z,14.93
2023-03-01T11:53:29.086Z,16.07
2023-03-01T11:54:57.379Z,15.33
2023-03-01T11:56:25.250Z,15.07
2023-03-01T11:57:42.731Z,15.90
2023-03-01T11:59:24.533Z,14.40
2023-03-01T12:01:05.299Z,14.97
2023-03-01T12:02:47.662Z,16.73
2023-03-01T12:04:08.771Z,15.10
2023-03-01T12:05:31.645Z,14.60
2023-03-01T12:07:06.313Z,13.63
2023-03-01T12:08:55.800Z,14.23
2023-03-01T12:10:23.059Z,13.07
2023-03-01T12:11:46.005Z,15.30
2023-03-01T12:13:38.687Z,13.27
2023-03-01T12:15:00.479Z,13.80
2023-03-01T12:16:17.611Z,16.37
2023-03-01T12:17:45.452Z,14.03
2023-03-01T12:18:50.297Z,14.13
2023-03-01T12:20:23.445Z,13.40
2023-03-01T12:22:00.457Z,16.47
2023-03-01T12:23:27.944Z,13.83
2023-03-01T12:24:57.848Z,14.87
2023-03-01T12:26:06.792Z,13.73
2023-03-01T12:27:40.217Z,15.77
2023-03-01T12:28:53.158Z,14.93
2023-03-01T12:30:10.782Z,15.47
2023-03-01T12:31:35.929Z,14.80
2023-03-01T12:32:56.830Z,18.00
2023-03-01T12:34:20.889Z,16.30
2023-03-01T12:35:32.748Z,14.30
2023-03-01T12:37:03.731Z,16.87
2023-03-01T12:38:27.012Z,14.90
2023-03-01T12:40:05.846Z,16.23
2023-03-01T12:41:44.860Z,14.87
2023-03-01T12:43:15.443Z,13.70
2023-03-01T12:44:44.870Z,15.27
2023-03-01T12:46:20.474Z,15.03
2023-03-01T12:47:45.965Z,15.77
2023-03-01T12:49:05.659Z,13.40
2023-03-01T12:50:20.943Z,15.73
2023-03-01T12:51:30.298Z,15.53
2023-03-01T12:52:50.630Z,14.47
2023-03-01T12:53:57.156Z,14.30
2023-03-01T12:55:04.058Z,16.20
2023-03-01T12:56:22.605Z,17.73
2023-03-01T12:57:39.332Z,14.27
2023-03-01T12:59:05.799Z,15.07
2023-03-01T13:00:29.413Z,14.57
2023-03-01T13:01:50.223Z,15.80
2023-03-01T13:03:21.996Z,15.30
2023-03-01T13:04:26.920Z,16.53
2023-03-01T13:06:09.484Z,13.40
2023-03-01T13:07:42.489Z,13.27
2023-03-01T13:09:13.697Z,14.60
2023-03-01T13:10:22.244Z,12.67
2023-03-01T13:11:25.126Z,15.13
2023-03-01T13:12:50.586Z,15.73
2023-03-01T13:14:12.908Z,16.40
2023-03-01T13:15:24.241Z,14.83
2023-03-01T13:16:30.540Z,15.90
2023-03-01T13:17:43.003Z,16.50
2023-03-01T13:18:46.493Z,14.77
2023-03-01T13:19:59.302Z,14.17
2023-03-01T13:21:02.843Z,15.03
2023-03-01T13:22:29.189Z,13.57
2023-03-01T13:23:38.523Z,13.03
2023-03-01T13:24:42.582Z,16.13
2023-03-01T13:26:00.091Z,16.23
2023-03-01T13:27:09.368Z,14.97
2023-03-01T13:28:32.976Z,14.10
2023-03-01T13:29:47.495Z,14.07
2023-03-01T13:30:49.728Z,13.50
2023-03-01T13:31:51.910Z,14.43
2023-03-01T13:33:29.245Z,16.47
2023-03-01T13:34:42.518Z,16.30
2023-03-01T13:35:45.719Z,16.13
2023-03-01T13:36:50.667Z,14.10
2023-03-01T13:37:52.938Z,15.07
2023-03-01T13:38:55.123Z,15.83
2023-03-01T13:40:05.877Z,15.80
2023-03-01T13:41:09.232Z,15.03
2023-03-01T13:42:59.410Z,13.30
2023-03-01T13:44:27.934Z,15.03
2023-03-01T13:45:44.308Z,14.77
2023-03-01T13:46:47.429Z,14.03
2023-03-01T13:48:00.053Z,16.47
2023-03-01T13:49:02.378Z,14.10
2023-03-01T13:50:05.412Z,14.23
2023-03-01T13:51:13.006Z,14.87
2023-03-01T13:52:40.529Z,15.23
2023-03-01T13:53:48.425Z,13.63
2023-03-01T13:54:51.366Z,15.67
2023-03-01T13:56:01.797Z,15.70
2023-03-01T13:57:04.430Z,14.63
2023-03-01T13:58:16.795Z,14.97
2023-03-01T13:59:22.207Z,16.00
2023-03-01T14:00:37.095Z,15.60
2023-03-01T14:01:40.213Z,13.67
2023-03-01T14:02:45.004Z,14.43
2023-03-01T14:03:47.570Z,14.70
2023-03-01T14:05:01.373Z,15.87
2023-03-01T14:06:20.841Z,13.57
2023-03-01T14:07:30.554Z,14.33
2023-03-01T14:08:33.203Z,13.63
2023-03-01T14:09:41.877Z,13.17
2023-03-01T14:10:55.213Z,14.47
2023-03-01T14:12:10.556Z,16.53
2023-03-01T14:13:50.878Z,13.27
2023-03-01T14:15:21.352Z,14.07
2023-03-01T14:16:51.187Z,12.47
2023-03-01T14:18:05.466Z,12.67
2023-03-01T14:19:32.585Z,13.23
2023-03-01T14:20:42.394Z,14.83
2023-03-01T14:21:44.737Z,13.83
2023-03-01T14:22:48.743Z,12.77
2023-03-01T14:23:50.868Z,13.67
2023-03-01T14:24:57.269Z,12.20
2023-03-01T14:25:59.470Z,13.23
2023-03-01T14:27:04.616Z,12.33
2023-03-01T14:28:29.623Z,13.57
2023-03-01T14:29:38.014Z,14.50
2023-03-01T14:30:44.416Z,12.80
2023-03-01T14:31:53.451Z,12.00